Battle Ground, WA (98604)

2:44 PM PST on January 25, 2015 (GMT -0800)
BATTLE GROUND .5 m North of H.S. | Change Station
CLOSE
Current Station
Personal Weather Station
Location: Battle Ground, WA
Elevation: 305 ft
Nearby Weather Stations

Elev 305 ft 45.79 °N, 122.54 °W | Updated 0 second ago

Partly Cloudy
Partly Cloudy
50.6 °F
Feels Like 50.6 °F
N
0.0
Wind Variable Wind from SSE
Gusts 1.0 mph

Today
High -- | Low -- °F
--% Chance of Precip.
Yesterday
High -- | Low -- °F
Precip. -- in
7:39 AM 5:05 PM
Waxing Crescent, 36% visible
Pressure 30.07 in
Visibility 3.0 miles
Clouds Overcast 200 ft
Dew Point 50 °F
Humidity 99%
Rainfall 0.00 in
Snow Depth Not available.
UV 0 out of 12
Pollen 2.70 out of 12
Air Quality Not available.
Flu Activity Not available.
SPECI KVUO 252236Z AUTO 31004KT 3SM BR OVC002 10/09 A3007 RMK AO2 T01000089

More Conditions Fewer Conditions

Pressure 30.07 in
Visibility 3.0 miles
Clouds Overcast 200 ft
Dew Point 50 °F
Humidity 99%
Rainfall 0.00 in
Snow Depth Not available.
UV 0 out of 12
Pollen 2.70 out of 12
Air Quality Not available.
Flu Activity Not available.
SPECI KVUO 252236Z AUTO 31004KT 3SM BR OVC002 10/09 A3007 RMK AO2 T01000089

More Conditions Fewer Conditions

10-Day Weather Forecast

Almanac

Astronomy

Jan. 25, 2015 Rise Set
Actual Time
Civil Twilight
Nautical Twilight
Astronomical Twilight
Moon
Length of Visible Light
Length of Day
Tomorrow will be .
, % of the Moon is Illuminated

Today's Extremes

State Highs State Lows

Community

WunderPhotos

Upload Photos

1,790,079 photos uploaded!

WunderBlogs® & News

Nearby

Air Quality

  Air Quality AQ Index Pollutant
Not available.

Snow Depth

Station Depth Elevation

Earthquake Activity

City Distance Mag. Time & Date
Minimum magnitude displayed is 2.5.

Coastal Water Temperatures

Place Temperature

Nearby Weather Stations